Time;durP1;ratioP1;P1;durP2;ratioP2;P2;SDS_P1;SDS_P2;PMS_P1;PMS_P2;Temp;Humidity;BMP_temperature;BMP_pressure;BME280_temperature;BME280_humidity;BME280_pressure;Samples;Min_cycle;Max_cycle;Signal;HPM_P1;HPM_P2
2022/04/19 00:02:53;;;;;;;6.05;3.58;;;8.90;99.90;;;;;;15499231;22;20438;-82
2022/04/19 00:08:55;;;;;;;6.30;3.42;;;8.90;99.90;;;;;;15479322;23;20048;-83
2022/04/19 00:14:57;;;;;;;5.93;3.38;;;8.80;99.90;;;;;;15496693;22;20074;-82
2022/04/19 00:20:59;;;;;;;5.25;3.13;;;8.80;99.90;;;;;;15478231;22;20023;-83
2022/04/19 00:27:01;;;;;;;6.38;3.65;;;8.70;99.90;;;;;;15500122;22;20024;-83
2022/04/19 00:33:07;;;;;;;5.40;3.50;;;8.60;99.90;;;;;;15473088;22;20064;-82
2022/04/19 00:39:09;;;;;;;5.70;3.22;;;8.40;99.90;;;;;;15475723;22;20028;-82
2022/04/19 00:45:10;;;;;;;6.65;3.13;;;8.60;99.90;;;;;;15496414;22;20164;-83
2022/04/19 00:51:14;;;;;;;6.15;3.17;;;8.70;99.90;;;;;;15478372;22;20082;-82
2022/04/19 00:57:15;;;;;;;5.50;3.45;;;8.60;99.90;;;;;;15472684;23;20163;-83
2022/04/19 01:03:18;;;;;;;8.30;3.95;;;8.50;99.90;;;;;;15501890;22;20466;-83
2022/04/19 01:09:21;;;;;;;6.57;3.70;;;8.40;99.90;;;;;;15500643;22;20340;-83
2022/04/19 01:15:23;;;;;;;8.65;3.63;;;8.30;99.90;;;;;;15507996;22;20024;-82
2022/04/19 01:21:49;;;;;;;6.03;3.65;;;8.00;99.90;;;;;;15502723;22;20074;-83
2022/04/19 01:27:52;;;;;;;6.80;3.72;;;8.00;99.90;;;;;;15503378;22;20028;-83
2022/04/19 01:33:56;;;;;;;6.10;3.80;;;8.00;99.90;;;;;;15501293;22;20063;-83
2022/04/19 01:46:18;;;;;;;8.02;4.30;;;7.90;99.90;;;;;;15480374;22;20102;-82
2022/04/19 01:52:20;;;;;;;8.00;4.10;;;7.80;99.90;;;;;;15504009;22;20028;-82
2022/04/19 01:58:22;;;;;;;9.63;4.68;;;7.90;99.90;;;;;;15503917;22;20063;-82
2022/04/19 02:04:24;;;;;;;8.73;3.97;;;7.90;99.90;;;;;;15504459;22;20074;-82
2022/04/19 02:10:26;;;;;;;7.10;4.10;;;8.00;99.90;;;;;;15480733;22;20559;-83
2022/04/19 02:16:28;;;;;;;6.93;4.13;;;8.30;99.90;;;;;;15480449;23;20051;-83
2022/04/19 02:22:33;;;;;;;8.07;4.70;;;8.40;99.90;;;;;;15506291;22;20024;-82
2022/04/19 02:28:35;;;;;;;7.97;4.10;;;8.10;99.90;;;;;;15480114;23;20066;-82
2022/04/19 02:34:37;;;;;;;7.18;3.92;;;8.20;99.90;;;;;;15482914;22;20516;-83
2022/04/19 02:40:39;;;;;;;11.93;4.82;;;8.00;99.90;;;;;;15487147;22;20131;-83
2022/04/19 02:46:41;;;;;;;8.85;4.60;;;7.90;99.90;;;;;;15503732;22;20468;-84
2022/04/19 02:52:43;;;;;;;7.32;4.43;;;8.00;99.90;;;;;;15509104;22;20443;-84
2022/04/19 02:58:45;;;;;;;8.80;4.68;;;8.00;99.90;;;;;;15485309;22;20035;-82
2022/04/19 03:04:47;;;;;;;7.00;4.22;;;7.80;99.90;;;;;;15504548;22;20145;-82
2022/04/19 03:10:49;;;;;;;9.23;4.43;;;7.70;99.90;;;;;;15503811;22;20076;-82
2022/04/19 03:16:51;;;;;;;8.35;4.78;;;7.60;99.90;;;;;;15503226;22;20047;-82
2022/04/19 03:29:13;;;;;;;8.07;4.82;;;7.70;99.90;;;;;;15478818;23;20386;-83
2022/04/19 03:35:15;;;;;;;8.20;4.63;;;7.70;99.90;;;;;;15482109;22;20109;-82
2022/04/19 03:41:17;;;;;;;8.35;4.47;;;7.80;99.90;;;;;;15483110;22;20028;-82
2022/04/19 03:47:22;;;;;;;8.02;5.15;;;7.60;99.90;;;;;;15481707;22;20027;-82
2022/04/19 03:53:25;;;;;;;9.52;5.28;;;7.80;99.90;;;;;;15504285;22;20082;-83
2022/04/19 03:59:26;;;;;;;7.32;4.22;;;7.80;99.90;;;;;;15478069;22;20027;-83
2022/04/19 04:05:29;;;;;;;7.28;4.40;;;7.70;99.90;;;;;;15499433;22;20051;-82
2022/04/19 04:11:32;;;;;;;9.15;4.78;;;7.70;99.90;;;;;;15499086;22;20101;-82
2022/04/19 04:17:34;;;;;;;9.40;4.68;;;7.50;99.90;;;;;;15500581;22;20367;-83
2022/04/19 04:23:35;;;;;;;7.95;4.55;;;7.20;99.90;;;;;;15510430;22;20103;-81
2022/04/19 04:29:37;;;;;;;8.98;4.40;;;7.20;99.90;;;;;;15507870;22;20103;-82
2022/04/19 04:35:39;;;;;;;6.15;3.88;;;7.20;99.90;;;;;;15480269;22;20031;-82
2022/04/19 04:41:42;;;;;;;9.55;4.25;;;7.30;99.90;;;;;;15504322;22;20040;-83
2022/04/19 04:54:04;;;;;;;8.48;4.82;;;7.40;99.90;;;;;;15502390;22;20036;-83
2022/04/19 05:00:07;;;;;;;10.98;4.47;;;7.50;99.90;;;;;;15517355;22;20078;-83
2022/04/19 05:06:09;;;;;;;6.63;4.10;;;7.70;99.90;;;;;;15514091;22;20056;-83
2022/04/19 05:12:10;;;;;;;8.93;4.72;;;7.80;99.90;;;;;;15526576;22;20020;-83
2022/04/19 05:18:14;;;;;;;7.50;4.65;;;8.00;99.90;;;;;;15490815;23;20055;-82
2022/04/19 05:24:16;;;;;;;9.43;5.77;;;8.40;99.90;;;;;;15501189;22;20035;-82
2022/04/19 05:30:18;;;;;;;7.43;5.15;;;9.10;99.90;;;;;;15534532;22;20255;-82
2022/04/19 05:36:20;;;;;;;8.23;5.20;;;9.70;99.90;;;;;;15492610;22;20024;-82
2022/04/19 05:42:22;;;;;;;9.20;4.95;;;9.70;99.90;;;;;;15513676;22;20094;-82
2022/04/19 05:48:27;;;;;;;8.63;4.88;;;10.20;99.90;;;;;;15504177;22;20024;-82
2022/04/19 05:54:29;;;;;;;22.52;10.32;;;10.90;99.90;;;;;;15479256;23;20451;-82
2022/04/19 06:00:31;;;;;;;11.00;6.25;;;10.50;99.90;;;;;;15475746;22;20109;-82
2022/04/19 06:06:34;;;;;;;9.43;5.70;;;9.90;99.90;;;;;;15476274;22;20362;-82
2022/04/19 06:12:36;;;;;;;9.30;5.00;;;9.30;99.90;;;;;;15479286;22;20032;-81
2022/04/19 06:18:38;;;;;;;11.23;5.68;;;9.50;99.90;;;;;;15475045;22;20490;-82
2022/04/19 06:24:40;;;;;;;7.72;5.18;;;9.40;99.90;;;;;;15478107;22;20028;-81
2022/04/19 06:30:42;;;;;;;8.18;5.07;;;9.40;99.90;;;;;;15497757;22;20031;-83
2022/04/19 06:36:44;;;;;;;6.43;4.88;;;9.70;99.90;;;;;;15477158;23;20051;-82
2022/04/19 06:42:45;;;;;;;9.55;5.68;;;9.70;99.90;;;;;;15500979;22;20051;-81
2022/04/19 06:48:47;;;;;;;8.20;5.40;;;9.90;99.90;;;;;;15499585;22;20098;-81
2022/04/19 06:54:49;;;;;;;8.25;4.97;;;9.70;99.90;;;;;;15503313;22;20083;-82
2022/04/19 07:00:51;;;;;;;8.90;5.10;;;9.90;99.90;;;;;;15477284;22;20373;-82
2022/04/19 07:06:53;;;;;;;7.45;4.70;;;10.10;99.90;;;;;;15476765;22;20031;-82
2022/04/19 07:12:54;;;;;;;7.28;3.80;;;10.40;99.90;;;;;;15474053;22;20085;-82
2022/04/19 07:18:56;;;;;;;8.55;4.03;;;10.50;99.90;;;;;;15476403;22;20027;-82
2022/04/19 07:31:19;;;;;;;5.03;3.15;;;10.70;99.90;;;;;;15475374;22;20337;-81
2022/04/19 07:37:21;;;;;;;5.88;3.63;;;10.80;99.90;;;;;;15474436;22;20028;-81
2022/04/19 07:43:23;;;;;;;7.45;3.22;;;10.80;99.90;;;;;;15473350;22;20495;-82
2022/04/19 07:49:25;;;;;;;5.72;3.30;;;11.00;99.90;;;;;;15494076;22;20066;-81
2022/04/19 07:55:27;;;;;;;6.78;3.53;;;11.10;99.90;;;;;;15500321;22;20051;-82
2022/04/19 08:01:29;;;;;;;6.13;3.33;;;11.50;99.90;;;;;;15472211;22;20031;-82
2022/04/19 08:07:31;;;;;;;6.28;3.13;;;11.70;99.90;;;;;;15500300;22;20035;-81
2022/04/19 08:13:35;;;;;;;4.28;3.05;;;11.90;99.90;;;;;;15499806;22;20178;-82
2022/04/19 08:19:37;;;;;;;5.57;3.10;;;12.00;99.90;;;;;;15477006;23;20460;-82
2022/04/19 08:25:40;;;;;;;4.47;2.97;;;12.10;99.90;;;;;;15505448;22;20035;-83
2022/04/19 08:31:42;;;;;;;5.43;2.80;;;12.60;99.90;;;;;;15481820;22;20813;-82
2022/04/19 08:37:48;;;;;;;3.50;2.40;;;12.60;99.90;;;;;;15502632;22;20043;-83
2022/04/19 08:43:52;;;;;;;4.53;1.85;;;12.70;99.90;;;;;;15479352;22;20082;-82
2022/04/19 08:49:55;;;;;;;4.53;1.55;;;12.90;99.90;;;;;;15502136;22;20824;-82
2022/04/19 09:02:29;;;;;;;1.48;0.90;;;13.00;99.90;;;;;;15482724;22;20055;-82
2022/04/19 09:08:31;;;;;;;1.58;0.90;;;13.30;99.90;;;;;;15485192;23;20496;-83
2022/04/19 09:14:33;;;;;;;4.85;1.10;;;13.30;99.90;;;;;;15503423;22;20024;-82
2022/04/19 09:20:35;;;;;;;2.33;1.33;;;13.50;99.90;;;;;;15481838;22;20031;-83
2022/04/19 09:26:45;;;;;;;3.65;1.17;;;13.70;99.90;;;;;;15481012;23;20153;-82
2022/04/19 09:33:03;;;;;;;3.17;1.27;;;14.00;99.90;;;;;;15510767;22;20024;-82
2022/04/19 09:39:25;;;;;;;4.32;1.20;;;14.20;99.90;;;;;;15480344;23;20451;-82
2022/04/19 09:45:28;;;;;;;2.42;1.08;;;14.20;99.90;;;;;;15502715;22;20023;-83
2022/04/19 09:51:31;;;;;;;3.70;1.33;;;14.30;99.90;;;;;;15481997;22;20020;-82
2022/04/19 09:57:36;;;;;;;2.93;1.20;;;14.60;99.90;;;;;;15500292;22;20024;-83
2022/04/19 10:10:04;;;;;;;3.97;1.60;;;14.70;99.90;;;;;;15478038;22;20032;-83
2022/04/19 10:16:14;;;;;;;3.28;1.55;;;14.80;99.90;;;;;;15477200;22;20035;-83
2022/04/19 10:22:16;;;;;;;3.50;1.60;;;14.90;99.90;;;;;;15505735;22;20099;-83
2022/04/19 10:28:30;;;;;;;5.90;1.90;;;15.00;99.90;;;;;;15476907;23;20129;-83
2022/04/19 10:34:36;;;;;;;2.50;1.80;;;15.10;99.90;;;;;;15477078;22;20031;-83
2022/04/19 10:40:58;;;;;;;3.13;1.95;;;15.20;99.90;;;;;;15490592;22;20075;-83
2022/04/19 10:47:06;;;;;;;4.45;1.80;;;15.30;99.90;;;;;;15470116;22;20179;-83
2022/04/19 10:53:13;;;;;;;3.58;1.65;;;15.60;99.90;;;;;;15467532;22;20416;-83
2022/04/19 10:59:21;;;;;;;3.47;1.80;;;15.30;99.90;;;;;;15474005;22;20104;-83
2022/04/19 11:05:50;;;;;;;2.90;1.70;;;15.70;99.90;;;;;;15474427;22;20035;-83
2022/04/19 11:11:56;;;;;;;5.88;1.80;;;15.90;99.90;;;;;;15501796;22;20393;-84
2022/04/19 11:18:22;;;;;;;3.03;1.75;;;16.00;99.90;;;;;;15501872;22;20023;-82
2022/04/19 11:25:03;;;;;;;3.97;1.90;;;15.60;99.90;;;;;;15473705;22;20059;-84
2022/04/19 11:31:05;;;;;;;6.25;1.65;;;16.10;99.90;;;;;;15499256;22;20028;-83
2022/04/19 11:37:08;;;;;;;2.55;1.58;;;16.10;99.90;;;;;;15479653;23;20063;-83
2022/04/19 11:49:36;;;;;;;2.88;1.65;;;16.00;99.90;;;;;;15472158;22;20103;-83
2022/04/19 11:55:37;;;;;;;2.88;1.80;;;15.90;99.90;;;;;;15473489;22;20024;-83
2022/04/19 12:01:39;;;;;;;6.32;1.70;;;16.00;99.90;;;;;;15498421;22;20107;-83
2022/04/19 12:07:47;;;;;;;5.18;1.77;;;16.20;99.90;;;;;;15496535;22;20028;-83
2022/04/19 12:13:50;;;;;;;5.10;1.88;;;16.20;99.90;;;;;;15471736;22;20020;-84
2022/04/19 12:20:04;;;;;;;4.82;1.95;;;16.30;99.90;;;;;;15504129;22;20410;-83
2022/04/19 12:26:07;;;;;;;2.58;1.50;;;16.40;99.90;;;;;;15478412;23;20024;-83
2022/04/19 12:32:09;;;;;;;3.43;1.30;;;16.60;99.90;;;;;;15475016;22;20071;-82
2022/04/19 12:38:16;;;;;;;2.28;1.13;;;16.50;99.90;;;;;;15478897;23;20047;-83
2022/04/19 12:44:19;;;;;;;3.00;1.13;;;16.90;99.90;;;;;;15498980;22;20035;-83
2022/04/19 12:50:21;;;;;;;7.97;1.30;;;16.80;99.90;;;;;;15498622;22;21588;-83
2022/04/19 12:56:22;;;;;;;3.75;1.60;;;16.50;99.90;;;;;;15504647;22;20075;-83
2022/04/19 13:02:24;;;;;;;2.92;1.23;;;16.40;99.90;;;;;;15505374;22;20125;-83
2022/04/19 13:14:56;;;;;;;10.27;2.00;;;16.40;99.90;;;;;;15496134;22;20075;-83
2022/04/19 13:20:59;;;;;;;2.00;1.20;;;16.40;99.90;;;;;;15509437;22;20123;-83
2022/04/19 13:27:01;;;;;;;2.85;1.40;;;16.90;99.90;;;;;;15505574;22;20103;-84
2022/04/19 13:33:04;;;;;;;5.32;1.35;;;16.60;99.90;;;;;;15503273;22;20114;-84
2022/04/19 13:39:06;;;;;;;4.07;1.23;;;16.70;99.90;;;;;;15497115;22;20095;-83
2022/04/19 13:45:08;;;;;;;2.78;1.40;;;16.70;99.90;;;;;;15499531;22;20109;-83
2022/04/19 13:51:10;;;;;;;1.88;1.20;;;16.50;99.90;;;;;;15473890;22;20075;-83
2022/04/19 13:57:12;;;;;;;3.05;1.13;;;16.80;99.90;;;;;;15505981;22;20109;-83
2022/04/19 14:03:14;;;;;;;3.45;1.10;;;16.80;99.90;;;;;;15478625;22;20030;-84
2022/04/19 14:09:16;;;;;;;2.90;0.95;;;16.90;99.90;;;;;;15498182;22;20117;-84
2022/04/19 14:15:18;;;;;;;3.17;0.90;;;16.90;99.90;;;;;;15498322;22;20442;-84
2022/04/19 14:21:20;;;;;;;2.60;1.05;;;17.20;99.90;;;;;;15473260;22;20914;-83
2022/04/19 14:27:21;;;;;;;3.00;1.40;;;17.00;99.90;;;;;;15498303;22;20143;-83
2022/04/19 14:33:24;;;;;;;2.85;1.00;;;17.00;99.90;;;;;;15495552;22;20066;-83
2022/04/19 14:39:30;;;;;;;1.50;0.83;;;16.70;99.90;;;;;;15471420;22;20772;-83
2022/04/19 14:45:32;;;;;;;1.40;0.90;;;16.90;99.90;;;;;;15497766;22;20491;-84
2022/04/19 14:57:54;;;;;;;1.23;0.77;;;17.00;99.90;;;;;;15475010;23;20120;-83
2022/04/19 15:03:56;;;;;;;3.22;0.77;;;17.00;99.90;;;;;;15467847;22;20804;-84
2022/04/19 15:09:58;;;;;;;2.58;0.90;;;17.20;99.90;;;;;;15461375;23;20349;-83
2022/04/19 15:16:20;;;;;;;2.65;0.70;;;17.40;99.90;;;;;;15493171;22;20028;-84
2022/04/19 15:22:22;;;;;;;1.52;0.70;;;17.20;99.90;;;;;;15499529;22;20043;-84
2022/04/19 15:28:24;;;;;;;1.25;0.73;;;17.00;99.90;;;;;;15499886;22;20039;-84
2022/04/19 15:34:26;;;;;;;1.23;0.75;;;17.00;99.90;;;;;;15501475;22;20107;-84
2022/04/19 15:40:32;;;;;;;2.65;0.80;;;17.50;99.90;;;;;;15480518;22;20035;-84
2022/04/19 15:46:34;;;;;;;2.65;0.85;;;17.40;99.90;;;;;;15500601;22;20063;-86
2022/04/19 15:52:36;;;;;;;1.63;0.80;;;17.00;99.90;;;;;;15543682;22;20031;-84
2022/04/19 15:58:37;;;;;;;2.33;0.65;;;17.00;99.90;;;;;;15476000;23;20098;-84
2022/04/19 16:04:39;;;;;;;1.95;0.80;;;16.90;99.90;;;;;;15479670;22;20028;-84
2022/04/19 16:10:42;;;;;;;1.00;0.70;;;16.80;99.90;;;;;;15479027;22;20028;-84
2022/04/19 16:23:24;;;;;;;3.13;0.57;;;16.80;99.90;;;;;;15477530;22;20086;-84
2022/04/19 16:29:25;;;;;;;2.83;0.80;;;16.60;99.90;;;;;;15478024;22;20043;-84
2022/04/19 16:35:28;;;;;;;1.85;0.80;;;16.60;99.90;;;;;;15495138;22;20126;-84
2022/04/19 16:41:30;;;;;;;2.90;0.88;;;16.80;99.90;;;;;;15468254;22;20122;-84
2022/04/19 16:47:32;;;;;;;2.78;1.15;;;16.70;99.90;;;;;;15478963;22;20059;-84
2022/04/19 16:53:35;;;;;;;4.32;0.70;;;16.90;99.90;;;;;;15502370;22;20401;-84
2022/04/19 16:59:39;;;;;;;1.65;0.90;;;16.80;99.90;;;;;;15502023;22;20099;-84
2022/04/19 17:05:41;;;;;;;4.85;0.77;;;16.70;99.90;;;;;;15478589;22;20125;-84
2022/04/19 17:11:45;;;;;;;2.95;0.88;;;16.40;99.90;;;;;;15500127;22;20058;-84
2022/04/19 17:17:47;;;;;;;3.00;1.10;;;16.50;99.90;;;;;;15496510;22;20516;-84
2022/04/19 17:23:49;;;;;;;1.98;0.85;;;16.20;99.90;;;;;;15491919;22;20122;-84
2022/04/19 17:29:50;;;;;;;3.13;1.00;;;16.00;99.90;;;;;;15504724;22;20024;-84
2022/04/19 17:35:52;;;;;;;3.95;1.20;;;15.90;99.90;;;;;;15479405;22;20028;-83
2022/04/19 17:41:55;;;;;;;2.40;0.88;;;15.90;99.90;;;;;;15497101;22;20039;-84
2022/04/19 17:47:57;;;;;;;1.80;1.17;;;15.40;99.90;;;;;;15503378;22;20032;-83
2022/04/19 18:00:20;;;;;;;2.38;1.10;;;14.80;99.90;;;;;;15477807;22;20024;-84
2022/04/19 18:06:24;;;;;;;4.75;1.05;;;14.40;99.90;;;;;;15480550;22;20071;-83
2022/04/19 18:12:26;;;;;;;3.70;0.90;;;14.20;99.90;;;;;;15483048;22;20028;-83
2022/04/19 18:18:29;;;;;;;2.65;1.08;;;14.00;99.90;;;;;;15503717;22;20096;-83
2022/04/19 18:30:52;;;;;;;4.80;1.30;;;13.50;99.90;;;;;;15475823;22;20024;-84
2022/04/19 18:36:55;;;;;;;3.13;0.95;;;13.30;99.90;;;;;;15502064;22;20025;-83
2022/04/19 18:42:58;;;;;;;7.25;1.30;;;13.10;99.90;;;;;;15500280;22;20110;-84
2022/04/19 18:49:00;;;;;;;3.40;1.60;;;13.00;99.90;;;;;;15481495;22;20330;-83
2022/04/19 18:55:02;;;;;;;3.30;0.93;;;13.00;99.90;;;;;;15479954;22;20485;-83
2022/04/19 19:01:04;;;;;;;6.53;0.98;;;12.90;99.90;;;;;;15501689;22;20027;-83
2022/04/19 19:07:06;;;;;;;4.25;0.93;;;12.80;99.90;;;;;;15503217;22;20027;-83
2022/04/19 19:13:07;;;;;;;3.67;0.77;;;12.80;99.90;;;;;;15501318;22;20107;-83
2022/04/19 19:19:09;;;;;;;5.22;0.90;;;12.60;99.90;;;;;;15480975;23;20090;-83
2022/04/19 19:25:11;;;;;;;2.97;0.70;;;12.60;99.90;;;;;;15472981;22;20563;-83
2022/04/19 19:31:13;;;;;;;1.77;0.80;;;12.40;99.90;;;;;;15478779;22;20078;-82
2022/04/19 19:37:15;;;;;;;3.63;1.00;;;12.20;99.90;;;;;;15522048;22;20024;-84
2022/04/19 19:43:18;;;;;;;6.88;1.08;;;11.90;99.90;;;;;;15556161;22;20024;-84
2022/04/19 19:49:20;;;;;;;3.63;1.00;;;12.00;99.90;;;;;;15505162;22;20027;-83
2022/04/19 19:55:22;;;;;;;2.65;0.90;;;11.90;99.90;;;;;;15487402;22;20077;-82
2022/04/19 20:01:24;;;;;;;1.92;0.85;;;12.00;99.90;;;;;;15509642;22;20526;-83
2022/04/19 20:07:26;;;;;;;1.58;0.90;;;11.80;99.90;;;;;;15503494;22;20460;-84
2022/04/19 20:13:28;;;;;;;4.85;1.05;;;11.70;99.90;;;;;;15500262;22;20028;-82
2022/04/19 20:19:30;;;;;;;2.38;1.08;;;11.70;99.90;;;;;;15481243;22;20031;-83
2022/04/19 20:25:32;;;;;;;3.00;0.93;;;11.50;99.90;;;;;;15481753;22;20102;-83
2022/04/19 20:31:34;;;;;;;3.20;1.02;;;11.30;99.90;;;;;;15485125;22;20039;-83
2022/04/19 20:37:37;;;;;;;2.55;1.10;;;11.20;99.90;;;;;;15485447;23;20030;-83
2022/04/19 20:43:39;;;;;;;5.18;1.30;;;11.10;99.90;;;;;;15508866;22;20032;-83
2022/04/19 20:56:06;;;;;;;5.47;1.25;;;11.00;99.90;;;;;;15485872;23;20016;-83
2022/04/19 21:02:08;;;;;;;5.55;1.52;;;11.00;99.90;;;;;;15508901;22;20127;-82
2022/04/19 21:08:10;;;;;;;2.85;1.10;;;10.90;99.90;;;;;;15484176;23;20032;-83
2022/04/19 21:14:12;;;;;;;2.78;1.40;;;10.70;99.90;;;;;;15508715;22;20099;-83
2022/04/19 21:20:15;;;;;;;4.05;1.65;;;10.30;99.90;;;;;;15508354;22;20075;-83
2022/04/19 21:26:17;;;;;;;4.30;1.50;;;10.10;99.90;;;;;;15481965;22;20024;-83
2022/04/19 21:32:20;;;;;;;2.40;1.30;;;10.00;99.90;;;;;;15477018;22;20024;-83
2022/04/19 21:38:22;;;;;;;4.68;1.38;;;10.00;99.90;;;;;;15478421;23;20035;-83
2022/04/19 21:44:24;;;;;;;2.08;1.00;;;10.00;99.90;;;;;;15502980;22;20111;-82
2022/04/19 21:50:26;;;;;;;2.10;0.85;;;10.10;99.90;;;;;;15477517;22;20077;-82
2022/04/19 21:56:28;;;;;;;2.70;1.08;;;10.10;99.90;;;;;;15505538;22;20031;-82
2022/04/19 22:02:30;;;;;;;1.85;0.85;;;10.30;99.90;;;;;;15505252;22;20111;-83
2022/04/19 22:08:32;;;;;;;2.80;1.15;;;10.40;99.90;;;;;;15505263;22;20709;-83
2022/04/19 22:14:34;;;;;;;2.38;1.13;;;10.40;99.90;;;;;;15504996;22;20087;-82
2022/04/19 22:20:36;;;;;;;2.42;1.20;;;10.20;99.90;;;;;;15478815;22;20074;-82
2022/04/19 22:26:38;;;;;;;2.55;1.27;;;10.10;99.90;;;;;;15508260;22;20051;-82
2022/04/19 22:32:40;;;;;;;2.53;1.00;;;10.10;99.90;;;;;;15480871;22;20446;-82
2022/04/19 22:38:42;;;;;;;2.10;1.00;;;10.20;99.90;;;;;;15480016;23;20814;-82
2022/04/19 22:44:44;;;;;;;2.95;1.30;;;10.20;99.90;;;;;;15505499;22;20122;-82
2022/04/19 22:50:46;;;;;;;4.28;1.30;;;10.10;99.90;;;;;;15506378;22;20058;-82
2022/04/19 22:56:49;;;;;;;3.22;1.50;;;10.00;99.90;;;;;;15477761;23;20238;-83
2022/04/19 23:02:51;;;;;;;4.30;1.30;;;9.80;99.90;;;;;;15502578;22;20724;-82
2022/04/19 23:08:52;;;;;;;3.58;1.88;;;9.80;99.90;;;;;;15505851;22;20174;-82
2022/04/19 23:14:54;;;;;;;2.13;1.10;;;9.70;99.90;;;;;;15516130;22;20036;-83
2022/04/19 23:20:56;;;;;;;2.70;1.10;;;9.60;99.90;;;;;;15493282;22;20098;-82
2022/04/19 23:33:18;;;;;;;4.00;1.50;;;9.50;99.90;;;;;;15475557;22;20174;-82
2022/04/19 23:39:21;;;;;;;4.63;1.48;;;9.60;99.90;;;;;;15503640;22;20028;-82
2022/04/19 23:45:22;;;;;;;3.35;1.10;;;9.60;99.90;;;;;;15479064;22;20578;-82
2022/04/19 23:51:24;;;;;;;3.30;1.25;;;9.60;99.90;;;;;;15498988;22;20048;-82
2022/04/19 23:57:26;;;;;;;1.83;1.15;;;9.60;99.90;;;;;;15496791;22;20444;-82
